Time;durP1;ratioP1;P1;durP2;ratioP2;P2;SDS_P1;SDS_P2;PMS_P1;PMS_P2;Temp;Humidity;BMP_temperature;BMP_pressure;BME280_temperature;BME280_humidity;BME280_pressure;Samples;Min_cycle;Max_cycle;Signal;HPM_P1;HPM_P2
2021/03/11 00:00:41;;;;;;;13.77;7.65;;;8.70;86.20;;;;;;5115405;27;20024;-70
2021/03/11 00:03:13;;;;;;;12.60;7.53;;;8.70;86.10;;;;;;5115815;28;20024;-70
2021/03/11 00:05:40;;;;;;;13.85;8.05;;;8.70;86.00;;;;;;5107413;28;20499;-70
2021/03/11 00:08:06;;;;;;;15.55;8.02;;;8.70;86.10;;;;;;5108897;28;20474;-70
2021/03/11 00:10:33;;;;;;;15.45;7.78;;;8.70;86.20;;;;;;5115771;28;20487;-70
2021/03/11 00:12:59;;;;;;;12.82;7.57;;;8.70;86.30;;;;;;5115119;28;20041;-71
2021/03/11 00:15:25;;;;;;;11.60;5.85;;;8.70;86.40;;;;;;5115556;28;20542;-70
2021/03/11 00:17:51;;;;;;;14.15;6.97;;;8.70;86.40;;;;;;5115770;28;20356;-70
2021/03/11 00:20:22;;;;;;;13.23;7.60;;;8.70;86.30;;;;;;5114743;28;20035;-70
2021/03/11 00:22:48;;;;;;;11.60;5.60;;;8.70;86.40;;;;;;5115769;28;20032;-71
2021/03/11 00:25:16;;;;;;;15.30;8.68;;;8.70;86.40;;;;;;5114034;28;20023;-70
2021/03/11 00:27:42;;;;;;;11.60;6.88;;;8.70;86.50;;;;;;5101850;28;20020;-70
2021/03/11 00:30:10;;;;;;;16.60;8.10;;;8.60;86.60;;;;;;5115215;28;20138;-70
2021/03/11 00:32:37;;;;;;;11.10;5.95;;;8.60;86.80;;;;;;5115143;28;20027;-70
2021/03/11 00:35:04;;;;;;;14.55;7.93;;;8.60;87.00;;;;;;5102288;28;20132;-70
2021/03/11 00:37:30;;;;;;;13.77;7.35;;;8.60;87.00;;;;;;5098828;28;20039;-70
2021/03/11 00:39:55;;;;;;;13.35;6.97;;;8.70;87.10;;;;;;5101368;28;20040;-70
2021/03/11 00:42:21;;;;;;;13.30;6.25;;;8.60;87.10;;;;;;5114626;28;20031;-70
2021/03/11 00:44:47;;;;;;;10.90;5.55;;;8.70;87.10;;;;;;5113316;28;20385;-70
2021/03/11 00:47:14;;;;;;;8.13;4.47;;;8.70;87.10;;;;;;5115036;28;20471;-70
2021/03/11 00:49:39;;;;;;;14.77;8.07;;;8.70;87.30;;;;;;5114312;28;20135;-70
2021/03/11 00:52:05;;;;;;;5.80;3.83;;;8.60;87.20;;;;;;5115156;28;20103;-70
2021/03/11 00:54:31;;;;;;;8.73;4.93;;;8.70;87.40;;;;;;5114870;28;20035;-71
2021/03/11 00:56:57;;;;;;;10.77;6.30;;;8.60;87.50;;;;;;5114354;28;20565;-70
2021/03/11 00:59:25;;;;;;;6.93;3.83;;;8.60;87.50;;;;;;5113590;28;20028;-70
2021/03/11 01:01:51;;;;;;;13.98;5.85;;;8.60;87.50;;;;;;5114543;28;20073;-70
2021/03/11 01:04:17;;;;;;;13.13;7.65;;;8.60;87.50;;;;;;5114036;28;20028;-70
2021/03/11 01:06:43;;;;;;;7.25;3.42;;;8.70;87.40;;;;;;5113139;28;20036;-70
2021/03/11 01:09:14;;;;;;;11.30;6.72;;;8.70;87.40;;;;;;5112634;28;20067;-72
2021/03/11 01:11:39;;;;;;;12.68;7.07;;;8.70;87.40;;;;;;5114599;28;20415;-70
2021/03/11 01:14:05;;;;;;;12.23;6.30;;;8.70;87.50;;;;;;5114572;28;20032;-70
2021/03/11 01:16:31;;;;;;;12.30;7.30;;;8.70;87.50;;;;;;5113806;28;20070;-70
2021/03/11 01:18:56;;;;;;;11.60;6.60;;;8.70;87.60;;;;;;5099738;28;20041;-70
2021/03/11 01:21:22;;;;;;;9.43;5.25;;;8.70;87.70;;;;;;5114320;28;20027;-70
2021/03/11 01:23:48;;;;;;;11.95;4.97;;;8.60;88.40;;;;;;5113537;28;20019;-71
2021/03/11 01:26:14;;;;;;;8.35;4.82;;;8.60;88.00;;;;;;5114145;28;20035;-70
2021/03/11 01:28:39;;;;;;;10.55;5.40;;;8.60;88.20;;;;;;5113847;28;20133;-70
2021/03/11 01:31:05;;;;;;;15.20;6.57;;;8.60;88.40;;;;;;5113379;28;20034;-70
2021/03/11 01:33:31;;;;;;;10.55;6.15;;;8.60;88.60;;;;;;5114385;28;20031;-70
2021/03/11 01:35:56;;;;;;;9.50;4.90;;;8.60;88.60;;;;;;5112563;28;20027;-71
2021/03/11 01:38:22;;;;;;;12.57;6.43;;;8.60;88.80;;;;;;5100756;28;20030;-70
2021/03/11 01:40:48;;;;;;;12.02;6.25;;;8.60;88.80;;;;;;5113623;28;20035;-71
2021/03/11 01:43:14;;;;;;;5.55;3.58;;;8.50;88.90;;;;;;5113800;28;20417;-71
2021/03/11 01:45:41;;;;;;;12.93;6.22;;;8.50;89.20;;;;;;5113199;28;20031;-70
2021/03/11 01:48:08;;;;;;;13.88;7.55;;;8.50;89.30;;;;;;5110029;28;20379;-71
2021/03/11 01:50:33;;;;;;;10.07;5.75;;;8.50;89.30;;;;;;5103483;28;20055;-70
2021/03/11 01:52:59;;;;;;;11.80;6.13;;;8.50;89.30;;;;;;5112957;28;20139;-70
2021/03/11 01:55:27;;;;;;;6.35;4.15;;;8.50;89.30;;;;;;5113194;28;20019;-70
2021/03/11 01:57:54;;;;;;;8.73;5.25;;;8.60;89.40;;;;;;5113516;28;20102;-71
2021/03/11 02:00:20;;;;;;;7.25;3.97;;;8.60;89.30;;;;;;5112909;28;20042;-70
2021/03/11 02:02:45;;;;;;;11.52;6.28;;;8.60;89.30;;;;;;5113877;28;20019;-70
2021/03/11 02:05:14;;;;;;;9.15;5.82;;;8.60;89.20;;;;;;5113598;28;20473;-71
2021/03/11 02:07:40;;;;;;;8.77;4.53;;;8.60;89.10;;;;;;5112911;28;20031;-70
2021/03/11 02:10:08;;;;;;;14.05;6.20;;;8.60;89.10;;;;;;5113506;28;20398;-71
2021/03/11 02:12:46;;;;;;;7.65;4.55;;;8.70;89.10;;;;;;5112818;28;20027;-71
2021/03/11 02:15:30;;;;;;;9.18;5.03;;;8.70;89.10;;;;;;5113479;28;20424;-70
2021/03/11 02:18:17;;;;;;;8.93;4.38;;;8.70;89.00;;;;;;5113423;28;20572;-71
2021/03/11 02:20:45;;;;;;;6.72;3.88;;;8.70;89.00;;;;;;5110616;28;20580;-72
2021/03/11 02:23:42;;;;;;;9.20;4.72;;;8.70;89.10;;;;;;5113302;28;20111;-70
2021/03/11 02:26:18;;;;;;;10.57;6.03;;;8.70;89.20;;;;;;5113099;28;20440;-70
2021/03/11 02:29:08;;;;;;;10.05;6.10;;;8.70;89.20;;;;;;5112360;28;20095;-70
2021/03/11 02:31:36;;;;;;;11.40;5.75;;;8.70;89.40;;;;;;5107894;28;20100;-70
2021/03/11 02:34:09;;;;;;;10.40;5.28;;;8.70;89.50;;;;;;5112271;28;20552;-70
2021/03/11 02:36:36;;;;;;;10.23;5.78;;;8.60;89.50;;;;;;5113349;28;20111;-70
2021/03/11 02:39:08;;;;;;;7.50;4.10;;;8.60;89.70;;;;;;5112999;28;20119;-70
2021/03/11 02:41:37;;;;;;;7.80;4.78;;;8.70;90.10;;;;;;5112270;28;20031;-70
2021/03/11 02:44:04;;;;;;;9.88;5.75;;;8.70;89.80;;;;;;5113113;28;20027;-70
2021/03/11 02:46:33;;;;;;;7.88;4.43;;;8.70;89.90;;;;;;5112939;28;20077;-70
2021/03/11 02:49:00;;;;;;;9.55;5.25;;;8.70;90.00;;;;;;5112502;28;20036;-70
2021/03/11 02:51:26;;;;;;;10.25;5.95;;;8.60;90.00;;;;;;5111679;28;20016;-70
2021/03/11 02:53:52;;;;;;;12.15;5.20;;;8.70;90.00;;;;;;5112944;28;20057;-70
2021/03/11 02:56:19;;;;;;;7.88;4.55;;;8.70;90.00;;;;;;5112217;28;20055;-71
2021/03/11 02:58:46;;;;;;;9.85;5.07;;;8.70;90.10;;;;;;5112931;28;20043;-71
2021/03/11 03:01:16;;;;;;;10.82;5.60;;;8.70;90.00;;;;;;5113046;28;20386;-70
2021/03/11 03:03:42;;;;;;;12.25;6.15;;;8.70;90.00;;;;;;5112211;28;20050;-70
2021/03/11 03:06:10;;;;;;;12.02;5.90;;;8.80;90.00;;;;;;5112915;28;20489;-70
2021/03/11 03:08:36;;;;;;;10.27;6.22;;;8.70;90.00;;;;;;5115893;28;20126;-71
2021/03/11 03:11:02;;;;;;;8.63;5.07;;;8.80;90.00;;;;;;5116924;28;20016;-71
2021/03/11 03:13:28;;;;;;;10.43;5.57;;;8.70;90.10;;;;;;5116988;28;20040;-70
2021/03/11 03:16:01;;;;;;;9.25;4.68;;;8.70;90.10;;;;;;5115533;28;20055;-70
2021/03/11 03:18:29;;;;;;;7.60;4.75;;;8.70;90.30;;;;;;5116263;28;20032;-70
2021/03/11 03:20:56;;;;;;;12.02;5.18;;;8.70;90.30;;;;;;5116551;28;20028;-70
2021/03/11 03:23:22;;;;;;;10.80;5.43;;;8.70;90.20;;;;;;5114654;27;20039;-70
2021/03/11 03:25:49;;;;;;;8.63;5.43;;;8.80;90.20;;;;;;5116066;28;20501;-70
2021/03/11 03:28:15;;;;;;;7.25;4.15;;;8.80;90.20;;;;;;5116243;28;20063;-70
2021/03/11 03:30:42;;;;;;;5.50;3.58;;;8.80;90.10;;;;;;5114944;28;20047;-70
2021/03/11 03:33:10;;;;;;;6.70;2.78;;;8.90;90.40;;;;;;5116238;28;20050;-70
2021/03/11 03:35:36;;;;;;;4.18;2.30;;;8.90;90.00;;;;;;5115947;28;20020;-70
2021/03/11 03:38:02;;;;;;;9.02;4.40;;;8.90;90.00;;;;;;5115280;28;20023;-69
2021/03/11 03:40:29;;;;;;;8.35;4.90;;;8.90;90.00;;;;;;5114565;28;20486;-70
2021/03/11 03:43:19;;;;;;;6.05;3.38;;;8.90;90.00;;;;;;5102980;28;20020;-70
2021/03/11 03:45:52;;;;;;;5.07;3.33;;;9.00;90.30;;;;;;5115145;28;20100;-70
2021/03/11 03:48:22;;;;;;;5.75;3.28;;;9.00;90.00;;;;;;5109738;28;20126;-70
2021/03/11 03:50:49;;;;;;;7.85;4.15;;;8.90;89.90;;;;;;5114830;28;20035;-70
2021/03/11 03:53:26;;;;;;;8.75;4.80;;;9.00;89.90;;;;;;5116018;28;20028;-70
2021/03/11 03:55:58;;;;;;;10.65;4.88;;;9.00;89.90;;;;;;5116133;28;20433;-70
2021/03/11 03:58:30;;;;;;;5.07;2.70;;;9.00;89.90;;;;;;5115187;28;20035;-71
2021/03/11 04:00:57;;;;;;;7.40;4.43;;;9.00;89.90;;;;;;5116368;28;20047;-71
2021/03/11 04:03:24;;;;;;;6.75;3.53;;;9.00;90.00;;;;;;5107983;28;20111;-71
2021/03/11 04:05:50;;;;;;;5.05;2.85;;;9.00;90.00;;;;;;5115381;28;20046;-70
2021/03/11 04:08:17;;;;;;;6.93;4.25;;;9.00;90.00;;;;;;5115748;28;20035;-70
2021/03/11 04:10:44;;;;;;;8.27;4.85;;;9.10;90.00;;;;;;5115646;28;20515;-70
2021/03/11 04:13:10;;;;;;;7.00;3.75;;;9.00;89.90;;;;;;5115056;27;20027;-70
2021/03/11 04:15:37;;;;;;;8.02;4.35;;;9.10;90.20;;;;;;5115479;28;20035;-70
2021/03/11 04:18:04;;;;;;;6.63;4.18;;;9.00;90.00;;;;;;5115193;28;20551;-71
2021/03/11 04:20:30;;;;;;;9.20;5.07;;;9.00;90.10;;;;;;5114397;28;20038;-70
2021/03/11 04:22:57;;;;;;;6.38;3.90;;;9.00;90.10;;;;;;5115478;28;20466;-71
2021/03/11 04:25:24;;;;;;;9.23;4.13;;;9.00;90.20;;;;;;5115541;27;20516;-71
2021/03/11 04:27:50;;;;;;;7.18;4.43;;;9.00;90.30;;;;;;5114453;28;20042;-70
2021/03/11 04:30:18;;;;;;;7.68;4.43;;;9.00;90.30;;;;;;5114966;28;20134;-70
2021/03/11 04:32:44;;;;;;;5.75;3.42;;;8.90;90.40;;;;;;5114218;28;20106;-70
2021/03/11 04:35:10;;;;;;;8.20;4.43;;;9.00;90.50;;;;;;5114902;28;20032;-70
2021/03/11 04:37:37;;;;;;;4.18;2.83;;;9.00;90.60;;;;;;5115168;28;20069;-70
2021/03/11 04:40:05;;;;;;;6.18;3.95;;;8.90;90.70;;;;;;5114532;28;20538;-70
2021/03/11 04:42:31;;;;;;;8.65;4.80;;;8.90;90.80;;;;;;5115039;28;20080;-70
2021/03/11 04:44:57;;;;;;;6.75;3.80;;;8.90;90.80;;;;;;5115015;28;20493;-70
2021/03/11 04:47:24;;;;;;;8.13;5.07;;;8.90;91.10;;;;;;5114394;28;20746;-70
2021/03/11 04:49:50;;;;;;;6.70;3.83;;;8.90;90.90;;;;;;5115246;28;20062;-70
2021/03/11 04:52:16;;;;;;;5.07;3.50;;;8.90;90.90;;;;;;5114958;28;20028;-71
2021/03/11 04:54:42;;;;;;;9.45;5.60;;;9.00;91.00;;;;;;5114340;28;20035;-70
2021/03/11 04:57:09;;;;;;;9.82;5.95;;;9.00;91.00;;;;;;5114929;28;20061;-70
2021/03/11 04:59:36;;;;;;;12.43;6.38;;;9.00;91.10;;;;;;5100182;28;20023;-70
2021/03/11 05:02:06;;;;;;;10.05;4.85;;;9.00;91.10;;;;;;5114479;28;20063;-70
2021/03/11 05:04:33;;;;;;;7.05;4.32;;;9.00;91.20;;;;;;5114734;28;20101;-70
2021/03/11 05:06:59;;;;;;;6.53;4.20;;;9.00;91.20;;;;;;5114778;28;20065;-70
2021/03/11 05:09:24;;;;;;;10.77;5.20;;;9.00;91.20;;;;;;5113706;28;20043;-70
2021/03/11 05:11:53;;;;;;;5.40;3.95;;;9.00;91.30;;;;;;5114603;28;20027;-70
2021/03/11 05:14:19;;;;;;;9.90;6.63;;;9.10;91.30;;;;;;5114486;28;20031;-70
2021/03/11 05:16:44;;;;;;;10.77;6.43;;;9.10;91.30;;;;;;5107888;28;20028;-70
2021/03/11 05:19:10;;;;;;;9.63;5.45;;;9.10;91.40;;;;;;5106147;28;20019;-70
2021/03/11 05:21:36;;;;;;;7.82;4.10;;;9.10;91.50;;;;;;5114482;28;20030;-70
2021/03/11 05:24:02;;;;;;;12.07;6.25;;;9.10;91.60;;;;;;5113795;28;20039;-70
2021/03/11 05:26:28;;;;;;;12.52;6.20;;;9.10;91.60;;;;;;5114119;28;20036;-70
2021/03/11 05:28:54;;;;;;;10.65;5.15;;;9.10;91.60;;;;;;5114005;28;20134;-70
2021/03/11 05:31:20;;;;;;;10.43;6.32;;;9.10;91.80;;;;;;5113552;28;20035;-70
2021/03/11 05:33:46;;;;;;;8.88;5.82;;;9.10;91.80;;;;;;5114143;28;20028;-70
2021/03/11 05:36:11;;;;;;;10.18;6.50;;;9.10;91.80;;;;;;5114267;28;20419;-70
2021/03/11 05:38:37;;;;;;;7.32;4.63;;;9.10;91.90;;;;;;5099170;28;20401;-70
2021/03/11 05:41:03;;;;;;;12.80;6.70;;;9.10;92.00;;;;;;5113592;28;20064;-70
2021/03/11 05:43:29;;;;;;;9.38;5.63;;;9.10;92.10;;;;;;5113532;28;20112;-70
2021/03/11 05:45:56;;;;;;;9.55;5.85;;;9.10;92.20;;;;;;5113934;28;20069;-70
2021/03/11 05:48:25;;;;;;;9.80;6.30;;;9.10;92.40;;;;;;5114072;28;20385;-70
2021/03/11 05:50:52;;;;;;;9.43;6.15;;;9.10;92.30;;;;;;5112970;28;20019;-70
2021/03/11 05:53:19;;;;;;;10.63;5.78;;;9.20;92.30;;;;;;5113898;28;20032;-70
2021/03/11 05:55:45;;;;;;;9.68;5.20;;;9.30;92.20;;;;;;5113489;28;20063;-70
2021/03/11 05:58:11;;;;;;;13.00;6.20;;;9.30;92.20;;;;;;5113207;28;20028;-70
2021/03/11 06:00:37;;;;;;;13.25;6.97;;;9.20;92.20;;;;;;5113643;28;20035;-70
2021/03/11 06:03:04;;;;;;;8.98;4.55;;;9.30;92.20;;;;;;5113565;28;20042;-70
2021/03/11 06:05:31;;;;;;;13.40;6.63;;;9.30;92.30;;;;;;5112988;28;20106;-70
2021/03/11 06:07:58;;;;;;;11.82;5.95;;;9.30;92.30;;;;;;5113376;28;20078;-70
2021/03/11 06:10:24;;;;;;;10.00;6.32;;;9.30;92.20;;;;;;5113297;28;20038;-70
2021/03/11 06:12:52;;;;;;;10.60;6.55;;;9.30;92.20;;;;;;5112195;28;20042;-70
2021/03/11 06:15:31;;;;;;;13.80;7.20;;;9.40;92.20;;;;;;5113234;28;20420;-73
2021/03/11 06:18:04;;;;;;;9.15;4.85;;;9.40;92.20;;;;;;5110524;28;20478;-73
2021/03/11 06:20:29;;;;;;;14.15;7.22;;;9.40;92.20;;;;;;5112108;28;20136;-76
2021/03/11 06:22:56;;;;;;;14.77;7.03;;;9.40;92.20;;;;;;5098143;28;20028;-73
2021/03/11 06:25:22;;;;;;;13.80;7.18;;;9.30;92.50;;;;;;5097489;28;20040;-69
2021/03/11 06:27:47;;;;;;;9.70;6.50;;;9.30;92.60;;;;;;5091869;28;20646;-69
2021/03/11 06:30:35;;;;;;;8.15;4.60;;;9.30;92.70;;;;;;5099565;28;20089;-68
2021/03/11 06:33:03;;;;;;;12.30;6.00;;;9.30;92.60;;;;;;5109438;28;20034;-69
2021/03/11 06:35:29;;;;;;;10.48;5.72;;;9.40;92.50;;;;;;5109731;28;20031;-69
2021/03/11 06:37:56;;;;;;;11.02;5.80;;;9.50;92.40;;;;;;5100185;28;20512;-69
2021/03/11 06:40:24;;;;;;;8.32;5.40;;;9.60;92.30;;;;;;5107559;28;20524;-70
2021/03/11 06:42:51;;;;;;;11.55;5.15;;;9.60;92.30;;;;;;5100161;28;20490;-70
2021/03/11 06:45:22;;;;;;;10.63;6.50;;;9.60;92.30;;;;;;5098996;28;20032;-69
2021/03/11 06:47:50;;;;;;;7.97;4.32;;;9.70;92.30;;;;;;5098372;28;20031;-69
2021/03/11 06:50:16;;;;;;;8.32;5.35;;;9.60;92.30;;;;;;5099352;28;20032;-69
2021/03/11 06:53:00;;;;;;;7.78;5.25;;;9.60;92.30;;;;;;5096059;28;20485;-69
2021/03/11 06:55:26;;;;;;;8.90;4.70;;;9.70;92.40;;;;;;5092629;28;20036;-70
2021/03/11 06:57:52;;;;;;;10.05;5.53;;;9.60;92.50;;;;;;5100493;28;20044;-70
2021/03/11 07:00:18;;;;;;;11.90;5.75;;;9.50;92.80;;;;;;5092629;28;20032;-70
2021/03/11 07:02:57;;;;;;;11.73;6.20;;;9.50;93.00;;;;;;5092502;28;20028;-69
2021/03/11 07:05:25;;;;;;;13.90;5.32;;;9.50;93.30;;;;;;5096819;28;20106;-69
2021/03/11 07:08:04;;;;;;;10.07;5.70;;;9.50;93.30;;;;;;5091507;28;20024;-75
2021/03/11 07:10:30;;;;;;;9.55;5.80;;;9.50;93.30;;;;;;5094591;28;20111;-74
2021/03/11 07:13:00;;;;;;;11.50;6.25;;;9.50;93.40;;;;;;5107940;28;20159;-69
2021/03/11 07:15:30;;;;;;;11.57;6.45;;;9.50;93.40;;;;;;5094206;28;20042;-70
2021/03/11 07:17:57;;;;;;;12.20;6.60;;;9.50;93.50;;;;;;5100188;28;20054;-68
2021/03/11 07:20:28;;;;;;;12.43;5.22;;;9.60;93.50;;;;;;5093572;28;20122;-70
2021/03/11 07:23:10;;;;;;;9.05;5.18;;;9.50;93.50;;;;;;5093444;28;20028;-69
2021/03/11 07:25:40;;;;;;;13.40;5.90;;;9.60;93.50;;;;;;5093189;28;20472;-67
2021/03/11 07:28:08;;;;;;;15.68;7.00;;;9.70;93.40;;;;;;5094688;28;20072;-67
2021/03/11 07:30:54;;;;;;;15.02;6.95;;;9.70;93.40;;;;;;5091143;28;20055;-67
2021/03/11 07:33:22;;;;;;;8.13;4.75;;;9.70;93.30;;;;;;5090894;28;20032;-67
2021/03/11 07:35:49;;;;;;;13.13;6.00;;;9.70;93.30;;;;;;5095415;28;20023;-67
2021/03/11 07:38:17;;;;;;;11.43;5.90;;;9.80;93.20;;;;;;5097413;28;20367;-67
2021/03/11 07:40:46;;;;;;;11.57;6.63;;;9.80;93.10;;;;;;5104653;28;20422;-67
2021/03/11 07:43:14;;;;;;;13.00;6.35;;;9.90;93.00;;;;;;5104294;28;20039;-67
2021/03/11 07:45:40;;;;;;;15.15;6.38;;;9.90;93.00;;;;;;5101670;28;20085;-67
2021/03/11 07:48:07;;;;;;;14.98;7.65;;;9.90;93.00;;;;;;5099494;28;20039;-67
2021/03/11 07:50:33;;;;;;;11.82;5.53;;;10.00;92.90;;;;;;5101484;28;20039;-67
2021/03/11 07:53:02;;;;;;;14.45;5.43;;;10.00;92.90;;;;;;5099288;28;20023;-67
2021/03/11 07:55:28;;;;;;;13.55;6.05;;;10.00;92.90;;;;;;5101342;28;20048;-67
2021/03/11 07:57:56;;;;;;;10.60;4.85;;;10.10;92.80;;;;;;5102658;28;20093;-67
2021/03/11 08:00:25;;;;;;;12.55;4.45;;;10.20;92.70;;;;;;5104767;28;20462;-67
2021/03/11 08:02:59;;;;;;;13.95;5.43;;;10.20;92.60;;;;;;5095920;28;20028;-68
2021/03/11 08:05:29;;;;;;;17.05;5.50;;;10.20;92.60;;;;;;5104574;28;20535;-68
2021/03/11 08:08:17;;;;;;;16.17;5.32;;;10.30;92.50;;;;;;5103637;28;20040;-68
2021/03/11 08:10:58;;;;;;;15.85;4.43;;;10.20;92.50;;;;;;5104220;28;20024;-67
2021/03/11 08:13:37;;;;;;;17.13;5.28;;;10.30;92.50;;;;;;5112761;28;20135;-67
2021/03/11 08:16:15;;;;;;;16.00;4.97;;;10.30;92.50;;;;;;5113488;28;20093;-67
2021/03/11 08:18:44;;;;;;;16.52;6.93;;;10.30;92.40;;;;;;5114367;28;20027;-67
2021/03/11 08:21:24;;;;;;;12.55;5.40;;;10.30;92.40;;;;;;5114956;28;20055;-67
2021/03/11 08:23:57;;;;;;;19.75;5.93;;;10.30;92.70;;;;;;5114251;28;20039;-67
2021/03/11 08:26:38;;;;;;;15.77;5.35;;;10.20;92.50;;;;;;5108077;28;20020;-67
2021/03/11 08:29:17;;;;;;;23.45;6.68;;;10.20;92.50;;;;;;5099954;28;20118;-67
2021/03/11 08:31:43;;;;;;;24.65;5.95;;;10.20;92.50;;;;;;5099726;28;20035;-67
2021/03/11 08:34:29;;;;;;;21.17;4.85;;;10.20;92.60;;;;;;5094774;28;20024;-67
2021/03/11 08:37:13;;;;;;;14.88;4.43;;;10.20;92.60;;;;;;5102247;28;20486;-67
2021/03/11 08:39:38;;;;;;;24.23;5.38;;;10.30;92.50;;;;;;5113895;28;20148;-67
2021/03/11 08:42:42;;;;;;;24.75;5.20;;;10.30;92.30;;;;;;5114903;28;20118;-67
2021/03/11 08:45:08;;;;;;;26.17;5.43;;;10.20;92.20;;;;;;5112912;28;20115;-67
2021/03/11 08:47:34;;;;;;;27.20;6.18;;;10.20;92.30;;;;;;5110385;28;20520;-67
2021/03/11 08:50:02;;;;;;;30.63;6.53;;;10.20;92.10;;;;;;5101147;28;20055;-67
2021/03/11 08:52:42;;;;;;;31.27;6.43;;;10.20;91.90;;;;;;5114747;28;20024;-67
2021/03/11 08:55:34;;;;;;;31.23;6.28;;;10.20;91.90;;;;;;5114121;28;20153;-67
2021/03/11 08:58:01;;;;;;;29.10;6.57;;;10.20;91.70;;;;;;5098333;28;20075;-67
2021/03/11 09:00:57;;;;;;;34.40;7.35;;;10.20;91.70;;;;;;5113999;28;20035;-68
2021/03/11 09:03:42;;;;;;;34.33;7.18;;;10.30;91.50;;;;;;5093676;28;20042;-67
2021/03/11 09:06:09;;;;;;;35.92;7.53;;;10.30;91.30;;;;;;5109719;28;20036;-67
2021/03/11 09:08:45;;;;;;;29.13;6.68;;;10.20;91.20;;;;;;5111782;28;20043;-67
2021/03/11 09:11:21;;;;;;;44.65;7.85;;;10.20;91.20;;;;;;5109815;28;20816;-67
2021/03/11 09:13:51;;;;;;;38.70;7.70;;;10.30;91.20;;;;;;5101348;28;20031;-67
2021/03/11 09:16:23;;;;;;;41.42;8.77;;;10.30;91.10;;;;;;5113444;28;20038;-67
2021/03/11 09:18:57;;;;;;;43.57;8.00;;;10.30;90.90;;;;;;5112388;28;20079;-68
2021/03/11 09:21:32;;;;;;;48.42;9.25;;;10.30;90.80;;;;;;5101170;28;20638;-67
2021/03/11 09:23:58;;;;;;;48.83;7.88;;;10.30;90.80;;;;;;5103098;28;20141;-67
2021/03/11 09:26:25;;;;;;;37.05;7.30;;;10.30;90.90;;;;;;5096218;28;20150;-67
2021/03/11 09:28:51;;;;;;;39.67;7.97;;;10.30;90.60;;;;;;5112847;28;20406;-67
2021/03/11 09:31:24;;;;;;;34.83;7.35;;;10.30;90.60;;;;;;5114103;28;20032;-67
2021/03/11 09:33:50;;;;;;;32.53;5.95;;;10.30;90.70;;;;;;5113712;28;20035;-67
2021/03/11 09:36:16;;;;;;;45.20;7.93;;;10.40;90.80;;;;;;5113509;28;20043;-67
2021/03/11 09:38:43;;;;;;;31.80;7.43;;;10.40;90.60;;;;;;5109190;28;20032;-67
2021/03/11 09:41:10;;;;;;;49.30;7.28;;;10.40;90.30;;;;;;5114203;28;20031;-67
2021/03/11 09:43:37;;;;;;;46.88;7.47;;;10.50;90.40;;;;;;5113352;28;20031;-67
2021/03/11 09:46:17;;;;;;;35.75;9.30;;;10.50;90.30;;;;;;5113768;28;20031;-67
2021/03/11 09:48:48;;;;;;;34.58;7.53;;;10.50;90.20;;;;;;5113762;28;20035;-67
2021/03/11 09:51:22;;;;;;;46.72;8.00;;;10.50;90.20;;;;;;5112802;28;20118;-67
2021/03/11 09:53:47;;;;;;;37.90;9.55;;;10.60;89.90;;;;;;5113917;28;20039;-67
2021/03/11 09:56:19;;;;;;;44.95;8.10;;;10.50;90.00;;;;;;5113467;28;20020;-67
2021/03/11 09:58:50;;;;;;;33.28;5.53;;;10.50;89.70;;;;;;5112963;28;20047;-67
2021/03/11 10:01:23;;;;;;;35.20;8.77;;;10.50;89.80;;;;;;5111973;28;20024;-67
2021/03/11 10:03:49;;;;;;;39.70;7.63;;;10.50;90.00;;;;;;5104002;28;20114;-67
2021/03/11 10:06:16;;;;;;;44.42;8.10;;;10.60;89.50;;;;;;5113577;28;20129;-67
2021/03/11 10:08:42;;;;;;;39.33;7.85;;;10.60;89.80;;;;;;5104067;28;20046;-67
2021/03/11 10:11:24;;;;;;;32.88;7.28;;;10.60;90.10;;;;;;5112853;28;20038;-67
2021/03/11 10:13:54;;;;;;;33.60;7.45;;;10.60;89.70;;;;;;5113540;28;20426;-67
2021/03/11 10:16:32;;;;;;;33.85;7.07;;;10.60;89.00;;;;;;5112637;28;20028;-68
2021/03/11 10:19:11;;;;;;;31.23;9.02;;;10.60;89.30;;;;;;5112747;28;20038;-67
2021/03/11 10:21:53;;;;;;;30.73;6.78;;;10.60;89.20;;;;;;5113073;28;20023;-67
2021/03/11 10:24:41;;;;;;;30.20;8.20;;;10.60;89.30;;;;;;5106185;28;20110;-67
2021/03/11 10:27:32;;;;;;;37.38;7.68;;;10.60;89.50;;;;;;5108775;28;20378;-67
2021/03/11 10:30:21;;;;;;;33.97;7.07;;;10.60;90.00;;;;;;5112968;28;20425;-68
2021/03/11 10:32:57;;;;;;;35.00;7.70;;;10.60;89.80;;;;;;5099836;28;20470;-67
2021/03/11 10:35:40;;;;;;;34.60;8.60;;;10.50;89.70;;;;;;5099184;28;20055;-68
2021/03/11 10:38:19;;;;;;;34.38;7.63;;;10.50;89.80;;;;;;5113278;28;20058;-67
2021/03/11 10:40:45;;;;;;;35.00;6.93;;;10.50;90.10;;;;;;5112522;28;20064;-67
2021/03/11 10:43:22;;;;;;;37.30;8.18;;;10.50;90.20;;;;;;5112978;28;20027;-67
2021/03/11 10:45:48;;;;;;;45.33;8.85;;;10.50;90.00;;;;;;5111976;28;20031;-67
2021/03/11 10:48:15;;;;;;;37.15;8.93;;;10.40;90.20;;;;;;5112832;28;20024;-68
2021/03/11 10:50:46;;;;;;;25.33;7.20;;;10.40;90.30;;;;;;5103384;28;20702;-68
2021/03/11 10:53:16;;;;;;;34.47;8.15;;;10.40;90.40;;;;;;5112229;28;20038;-68
2021/03/11 10:55:43;;;;;;;28.83;4.63;;;10.30;90.50;;;;;;5111094;28;20086;-67
2021/03/11 10:58:26;;;;;;;31.63;5.82;;;10.40;90.50;;;;;;5113036;28;20040;-69
2021/03/11 11:01:05;;;;;;;24.80;6.78;;;10.40;90.60;;;;;;5111845;28;20032;-67
2021/03/11 11:03:31;;;;;;;26.65;6.07;;;10.40;90.50;;;;;;5097322;28;20047;-68
2021/03/11 11:05:57;;;;;;;33.42;6.22;;;10.30;90.70;;;;;;5112077;28;20387;-67
2021/03/11 11:08:22;;;;;;;34.90;7.45;;;10.30;90.70;;;;;;5112119;28;20130;-68
2021/03/11 11:10:49;;;;;;;28.40;6.65;;;10.30;90.80;;;;;;5112228;28;20055;-71
2021/03/11 11:13:14;;;;;;;29.42;6.70;;;10.20;90.70;;;;;;5112176;28;20424;-68
2021/03/11 11:15:40;;;;;;;30.30;5.78;;;10.10;90.80;;;;;;5111787;28;20035;-69
2021/03/11 11:18:06;;;;;;;29.73;6.60;;;10.10;91.00;;;;;;5112392;28;20463;-68
2021/03/11 11:20:33;;;;;;;24.27;6.57;;;10.10;91.10;;;;;;5112579;28;20085;-68
2021/03/11 11:23:00;;;;;;;31.77;6.28;;;10.00;91.20;;;;;;5110811;28;20024;-67
2021/03/11 11:25:26;;;;;;;24.75;5.65;;;10.00;91.30;;;;;;5111837;28;20031;-68
2021/03/11 11:27:51;;;;;;;33.53;7.43;;;10.00;91.60;;;;;;5112916;28;20076;-68
2021/03/11 11:30:17;;;;;;;32.92;6.70;;;10.00;91.40;;;;;;5113671;28;20096;-68
2021/03/11 11:32:43;;;;;;;29.75;6.70;;;10.00;91.30;;;;;;5115905;28;20462;-68
2021/03/11 11:35:09;;;;;;;31.80;7.88;;;9.90;91.30;;;;;;5115156;28;20028;-68
2021/03/11 11:37:35;;;;;;;32.65;7.03;;;9.90;91.40;;;;;;5104624;28;20122;-68
2021/03/11 11:40:02;;;;;;;34.83;6.95;;;9.90;91.40;;;;;;5115984;28;20103;-68
2021/03/11 11:42:27;;;;;;;39.70;7.45;;;9.90;91.40;;;;;;5112509;28;20024;-68
2021/03/11 11:44:53;;;;;;;33.90;7.85;;;9.90;91.50;;;;;;5115949;28;20038;-68
2021/03/11 11:47:19;;;;;;;34.53;6.82;;;9.90;91.50;;;;;;5115982;28;20030;-69
2021/03/11 11:49:45;;;;;;;31.70;6.68;;;9.80;91.60;;;;;;5114671;28;20037;-69
2021/03/11 11:52:11;;;;;;;28.65;7.13;;;9.80;91.70;;;;;;5115559;27;20045;-69
2021/03/11 11:54:37;;;;;;;27.58;7.13;;;9.80;91.80;;;;;;5115700;28;20034;-69
2021/03/11 11:57:04;;;;;;;35.40;7.20;;;9.70;91.90;;;;;;5114865;28;20030;-69
2021/03/11 11:59:30;;;;;;;39.53;9.55;;;9.70;92.00;;;;;;5115412;28;20035;-69
2021/03/11 12:01:55;;;;;;;27.33;7.47;;;9.70;92.00;;;;;;5115471;28;20023;-69
2021/03/11 12:04:21;;;;;;;27.80;7.28;;;9.70;92.20;;;;;;5112180;28;20485;-68
2021/03/11 12:06:47;;;;;;;33.55;7.75;;;9.60;92.30;;;;;;5115595;28;20093;-69
2021/03/11 12:09:13;;;;;;;31.13;7.57;;;9.60;92.40;;;;;;5115664;28;20470;-69
2021/03/11 12:11:39;;;;;;;32.78;7.70;;;9.60;92.70;;;;;;5114073;27;20036;-68
2021/03/11 12:14:04;;;;;;;29.75;8.88;;;9.50;92.50;;;;;;5115596;28;20414;-68
2021/03/11 12:16:30;;;;;;;29.60;7.38;;;9.50;92.60;;;;;;5115586;28;20039;-68
2021/03/11 12:18:57;;;;;;;32.97;7.57;;;9.50;92.80;;;;;;5113599;28;20037;-68
2021/03/11 12:21:23;;;;;;;35.97;7.78;;;9.50;92.90;;;;;;5114920;28;20104;-69
2021/03/11 12:23:51;;;;;;;24.23;6.78;;;9.50;92.90;;;;;;5110728;28;20032;-68
2021/03/11 12:26:20;;;;;;;27.17;5.35;;;9.50;92.90;;;;;;5108974;28;20080;-68
2021/03/11 12:28:48;;;;;;;29.92;6.55;;;9.50;92.90;;;;;;5112594;28;20089;-68
2021/03/11 12:31:18;;;;;;;29.98;5.72;;;9.50;92.90;;;;;;5114465;28;20047;-68
2021/03/11 12:33:46;;;;;;;32.10;6.68;;;9.40;92.90;;;;;;5094604;28;20040;-67
2021/03/11 12:36:19;;;;;;;20.17;5.20;;;9.40;92.80;;;;;;5114035;28;20035;-69
2021/03/11 12:39:09;;;;;;;28.35;5.95;;;9.40;92.80;;;;;;5113747;28;20078;-68
2021/03/11 12:41:38;;;;;;;27.38;6.40;;;9.40;92.60;;;;;;5085014;28;20469;-68
2021/03/11 12:44:06;;;;;;;23.30;4.82;;;9.40;92.60;;;;;;5103285;28;20503;-68
2021/03/11 12:46:33;;;;;;;33.55;5.68;;;9.30;92.40;;;;;;5103628;28;20042;-67
2021/03/11 12:49:01;;;;;;;21.13;5.22;;;9.30;92.40;;;;;;5104933;28;20521;-67
2021/03/11 12:51:28;;;;;;;23.75;5.40;;;9.30;92.40;;;;;;5077261;28;20089;-67
2021/03/11 12:53:55;;;;;;;14.32;3.95;;;9.30;92.30;;;;;;5107607;28;20535;-68
2021/03/11 12:56:22;;;;;;;15.07;4.47;;;9.30;92.20;;;;;;5104662;28;20051;-68
2021/03/11 12:58:48;;;;;;;11.30;3.58;;;9.30;92.10;;;;;;5113133;28;20088;-68